createdAt,value
2023-03-17T00:00:12.218Z,6.05
2023-03-17T00:02:13.879Z,6.06
2023-03-17T00:04:15.092Z,6.13
2023-03-17T00:06:16.444Z,6.08
2023-03-17T00:08:17.609Z,6.11
2023-03-17T00:10:19.499Z,6.06
2023-03-17T00:12:20.560Z,6.01
2023-03-17T00:14:22.170Z,6.07
2023-03-17T00:16:23.907Z,6.05
2023-03-17T00:18:25.809Z,6.05
2023-03-17T00:20:28.176Z,6.06
2023-03-17T00:22:29.310Z,6.06
2023-03-17T00:24:31.237Z,6.08
2023-03-17T00:26:32.493Z,6.02
2023-03-17T00:28:33.541Z,6.06
2023-03-17T00:30:35.538Z,6.02
2023-03-17T00:32:36.610Z,6.15
2023-03-17T00:34:38.491Z,5.95
2023-03-17T00:36:39.776Z,5.88
2023-03-17T00:38:41.033Z,5.86
2023-03-17T00:40:42.214Z,5.86
2023-03-17T00:42:43.822Z,5.82
2023-03-17T00:44:44.931Z,5.89
2023-03-17T00:46:46.016Z,5.8
2023-03-17T00:48:47.562Z,5.76
2023-03-17T00:50:49.448Z,5.72
2023-03-17T00:52:50.419Z,5.78
2023-03-17T00:54:52.346Z,5.92
2023-03-17T00:56:54.008Z,5.79
2023-03-17T00:58:55.553Z,5.86
2023-03-17T01:00:57.054Z,5.85
2023-03-17T01:02:58.090Z,5.76
2023-03-17T01:05:05.658Z,5.88
2023-03-17T01:07:01.193Z,5.61
2023-03-17T01:09:02.736Z,5.67
2023-03-17T01:11:04.063Z,5.66
2023-03-17T01:13:05.309Z,5.57
2023-03-17T01:15:06.746Z,5.69
2023-03-17T01:17:08.086Z,5.65
2023-03-17T01:19:09.667Z,5.76
2023-03-17T01:21:10.887Z,5.72
2023-03-17T01:23:11.921Z,5.62
2023-03-17T01:25:13.465Z,5.59
2023-03-17T01:27:58.481Z,5.37
2023-03-17T01:29:59.953Z,5.35
2023-03-17T01:32:01.677Z,5.42
2023-03-17T01:34:03.220Z,5.34
2023-03-17T01:36:04.848Z,5.36
2023-03-17T01:38:06.141Z,5.54
2023-03-17T01:40:08.107Z,5.58
2023-03-17T01:42:09.112Z,5.54
2023-03-17T01:44:10.694Z,5.48
2023-03-17T01:46:12.432Z,5.51
2023-03-17T01:48:13.484Z,5.41
2023-03-17T01:50:15.184Z,5.45
2023-03-17T01:52:16.963Z,5.56
2023-03-17T01:54:18.195Z,5.56
2023-03-17T01:56:20.168Z,5.54
2023-03-17T01:58:22.004Z,5.51
2023-03-17T02:00:23.705Z,5.58
2023-03-17T02:02:25.542Z,5.47
2023-03-17T02:04:27.079Z,5.46
2023-03-17T02:06:28.538Z,5.46
2023-03-17T02:08:29.574Z,5.51
2023-03-17T02:10:30.921Z,5.38
2023-03-17T02:12:32.480Z,5.35
2023-03-17T02:14:33.529Z,5.14
2023-03-17T02:16:34.908Z,4.99
2023-03-17T02:18:35.969Z,5
2023-03-17T02:20:37.489Z,4.6
2023-03-17T02:22:38.786Z,5
2023-03-17T02:24:39.775Z,5.16
2023-03-17T02:26:41.220Z,5.18
2023-03-17T02:28:42.502Z,5.17
2023-03-17T02:30:44.289Z,5.18
2023-03-17T02:32:45.727Z,5.14
2023-03-17T02:34:47.248Z,5
2023-03-17T02:36:49.051Z,4.88
2023-03-17T02:38:50.044Z,4.8
2023-03-17T02:40:51.727Z,4.79
2023-03-17T02:42:52.825Z,4.9
2023-03-17T02:44:54.306Z,4.89
2023-03-17T02:46:55.642Z,4.95
2023-03-17T02:48:57.081Z,4.78
2023-03-17T02:50:58.967Z,4.76
2023-03-17T02:53:00.888Z,4.82
2023-03-17T02:55:02.160Z,5.02
2023-03-17T02:57:03.804Z,5.12
2023-03-17T02:59:05.305Z,5.06
2023-03-17T03:01:06.434Z,5.13
2023-03-17T03:03:07.715Z,4.62
2023-03-17T03:05:09.204Z,4.62
2023-03-17T03:07:11.113Z,4.54
2023-03-17T03:09:13.014Z,4.55
2023-03-17T03:11:13.992Z,4.55
2023-03-17T03:13:15.052Z,4.63
2023-03-17T03:15:16.393Z,4.63
2023-03-17T03:17:17.947Z,4.4
2023-03-17T03:19:19.241Z,4.22
2023-03-17T03:21:20.382Z,4.27
2023-03-17T03:23:21.654Z,4.29
2023-03-17T03:25:22.943Z,4.68
2023-03-17T03:27:24.498Z,4.88
2023-03-17T03:29:25.538Z,5.05
2023-03-17T03:31:26.771Z,5.09
2023-03-17T03:33:28.299Z,4.92
2023-03-17T03:35:29.848Z,4.79
2023-03-17T03:37:31.673Z,4.57
2023-03-17T03:39:33.491Z,4.4
2023-03-17T03:41:35.391Z,4.26
2023-03-17T03:43:36.833Z,4.08
2023-03-17T03:45:38.525Z,4.13
2023-03-17T03:47:40.331Z,4.07
2023-03-17T03:49:41.723Z,4.02
2023-03-17T03:51:43.013Z,4
2023-03-17T03:53:44.875Z,3.89
2023-03-17T03:55:46.113Z,3.8
2023-03-17T03:57:47.164Z,3.81
2023-03-17T03:59:48.300Z,3.82
2023-03-17T04:01:49.489Z,3.83
2023-03-17T04:03:51.126Z,3.8
2023-03-17T04:05:52.981Z,3.78
2023-03-17T04:07:54.534Z,3.77
2023-03-17T04:09:56.536Z,3.7
2023-03-17T04:11:58.386Z,3.66
2023-03-17T04:13:59.933Z,3.65
2023-03-17T04:16:01.731Z,3.61
2023-03-17T04:18:02.736Z,3.47
2023-03-17T04:20:03.808Z,3.43
2023-03-17T04:22:05.082Z,3.42
2023-03-17T04:24:06.502Z,3.27
2023-03-17T04:26:07.730Z,3.22
2023-03-17T04:28:09.150Z,3.16
2023-03-17T04:30:10.210Z,3.17
2023-03-17T04:32:11.481Z,3.05
2023-03-17T04:34:12.989Z,2.91
2023-03-17T04:36:14.887Z,2.88
2023-03-17T04:38:15.995Z,2.86
2023-03-17T04:40:17.544Z,2.78
2023-03-17T04:42:19.019Z,2.61
2023-03-17T04:44:20.523Z,2.39
2023-03-17T04:46:22.462Z,2.46
2023-03-17T04:50:24.747Z,2.22
2023-03-17T04:52:26.295Z,1.99
2023-03-17T04:54:27.690Z,1.82
2023-03-17T04:56:31.188Z,1.75
2023-03-17T04:58:31.298Z,1.57
2023-03-17T05:00:32.034Z,1.59
2023-03-17T05:02:32.927Z,1.66
2023-03-17T05:04:33.952Z,1.57
2023-03-17T05:06:36.006Z,1.57
2023-03-17T05:08:37.096Z,1.44
2023-03-17T05:10:38.428Z,1.34
2023-03-17T05:12:39.875Z,1.58
2023-03-17T05:14:41.619Z,1.59
2023-03-17T05:16:43.241Z,1.51
2023-03-17T05:18:45.616Z,1.46
2023-03-17T05:20:46.383Z,1.36
2023-03-17T05:22:48.056Z,1.27
2023-03-17T05:24:49.785Z,1.15
2023-03-17T05:26:50.919Z,1.14
2023-03-17T05:28:52.416Z,1.34
2023-03-17T05:30:53.557Z,1.49
2023-03-17T05:32:54.748Z,1.42
2023-03-17T05:34:56.430Z,1.31
2023-03-17T05:36:57.782Z,1.34
2023-03-17T05:38:59.286Z,1.33
2023-03-17T05:41:00.454Z,1.31
2023-03-17T05:43:01.827Z,1.29
2023-03-17T05:45:03.427Z,1.32
2023-03-17T05:47:05.020Z,1.36
2023-03-17T05:49:06.492Z,1.45
2023-03-17T05:51:07.712Z,1.47
2023-03-17T05:53:09.175Z,1.47
2023-03-17T05:55:10.868Z,1.5
2023-03-17T05:57:12.475Z,1.48
2023-03-17T05:59:14.036Z,1.52
2023-03-17T06:01:15.400Z,1.57
2023-03-17T06:03:16.534Z,1.58
2023-03-17T06:05:17.660Z,1.65
2023-03-17T06:07:19.355Z,1.82
2023-03-17T06:09:20.574Z,2.13
2023-03-17T06:11:21.835Z,2.1
2023-03-17T06:13:23.079Z,2.06
2023-03-17T06:15:24.789Z,2.16
2023-03-17T06:17:26.265Z,2.12
2023-03-17T06:19:27.458Z,2.08
2023-03-17T06:21:28.617Z,2.13
2023-03-17T06:23:30.042Z,2.28
2023-03-17T06:25:32.145Z,2.96
2023-03-17T06:27:33.621Z,3.58
2023-03-17T06:29:35.581Z,4
2023-03-17T06:31:37.227Z,3.42
2023-03-17T06:33:38.134Z,2.97
2023-03-17T06:35:39.505Z,3.33
2023-03-17T06:37:40.812Z,3.59
2023-03-17T06:39:42.426Z,3.9
2023-03-17T06:41:43.885Z,3.97
2023-03-17T06:43:45.654Z,4.82
2023-03-17T06:45:47.549Z,4.79
2023-03-17T06:47:48.753Z,3.98
2023-03-17T06:49:49.990Z,4.14
2023-03-17T06:51:50.995Z,4.26
2023-03-17T06:53:52.848Z,4.56
2023-03-17T06:55:54.598Z,4.44
2023-03-17T06:57:56.441Z,4.76
2023-03-17T06:59:57.818Z,4.64
2023-03-17T07:01:59.513Z,4.84
2023-03-17T07:04:01.297Z,5
2023-03-17T07:06:02.853Z,5.23
2023-03-17T07:08:04.244Z,4.84
2023-03-17T07:10:05.635Z,5.59
2023-03-17T07:12:07.120Z,5.98
2023-03-17T07:14:08.961Z,6.18
2023-03-17T07:16:10.371Z,6.12
2023-03-17T07:18:12.212Z,5.94
2023-03-17T07:20:13.633Z,5.92
2023-03-17T07:22:15.433Z,5.71
2023-03-17T07:24:16.530Z,5.56
2023-03-17T07:26:26.400Z,5.53
2023-03-17T07:28:19.995Z,5.72
2023-03-17T07:30:21.176Z,4.99
2023-03-17T07:32:22.617Z,4.85
2023-03-17T07:34:23.837Z,4.75
2023-03-17T07:36:25.724Z,5.39
2023-03-17T07:38:26.842Z,6
2023-03-17T07:40:28.149Z,5.96
2023-03-17T07:42:30.316Z,6.19
2023-03-17T07:44:31.580Z,6.26
2023-03-17T07:46:33.362Z,6.25
2023-03-17T07:48:34.754Z,6.88
2023-03-17T07:50:36.559Z,6.83
2023-03-17T07:52:37.644Z,7.12
2023-03-17T07:54:41.507Z,7.53
2023-03-17T07:56:40.653Z,7.68
2023-03-17T07:58:42.015Z,7.28
2023-03-17T08:00:43.593Z,7.68
2023-03-17T08:02:44.558Z,8.03
2023-03-17T08:04:45.913Z,8.56
2023-03-17T08:06:47.756Z,7.57
2023-03-17T08:08:48.601Z,7.75
2023-03-17T08:10:50.366Z,8.89
2023-03-17T08:13:35.868Z,8.84
2023-03-17T08:15:37.395Z,9.15
2023-03-17T08:17:38.356Z,8.86
2023-03-17T08:19:39.195Z,9.15
2023-03-17T08:21:40.568Z,7.89
2023-03-17T08:23:41.804Z,8.36
2023-03-17T08:25:43.233Z,8.27
2023-03-17T08:27:44.215Z,9.01
2023-03-17T08:29:45.040Z,9.24
2023-03-17T08:31:46.712Z,8.53
2023-03-17T08:33:46.940Z,8.47
2023-03-17T08:35:48.306Z,8.45
2023-03-17T08:37:49.200Z,9.06
2023-03-17T08:39:50.670Z,9.34
2023-03-17T08:41:51.851Z,9.09
2023-03-17T08:43:53.277Z,8.78
2023-03-17T08:45:54.874Z,9.01
2023-03-17T08:47:55.785Z,9.07
2023-03-17T08:49:57.268Z,9.63
2023-03-17T08:51:58.633Z,9.78
2023-03-17T08:53:59.580Z,9.54
2023-03-17T08:56:02.172Z,10.2
2023-03-17T08:58:03.880Z,10.03
2023-03-17T09:00:05.415Z,9.58
2023-03-17T09:02:07.033Z,9.68
2023-03-17T09:04:08.749Z,10.32
2023-03-17T09:06:09.698Z,10.31
2023-03-17T09:08:10.870Z,11.12
2023-03-17T09:10:13.286Z,11.21
2023-03-17T09:12:14.574Z,11.74
2023-03-17T09:14:16.356Z,11.63
2023-03-17T09:16:18.316Z,11.48
2023-03-17T09:18:21.990Z,11.13
2023-03-17T09:20:20.985Z,10.84
2023-03-17T09:22:22.324Z,11.09
2023-03-17T09:24:23.994Z,11.15
2023-03-17T09:26:25.676Z,11.53
2023-03-17T09:28:26.518Z,11.96
2023-03-17T09:30:27.753Z,12.19
2023-03-17T09:32:30.211Z,12.8
2023-03-17T09:34:31.504Z,12.38
2023-03-17T09:36:32.652Z,12.56
2023-03-17T09:38:34.203Z,12.7
2023-03-17T09:40:35.544Z,13.03
2023-03-17T09:42:35.972Z,12.69
2023-03-17T09:44:37.100Z,12.78
2023-03-17T09:46:38.919Z,13.08
2023-03-17T09:48:40.161Z,12.68
2023-03-17T09:50:41.728Z,12.98
2023-03-17T09:52:42.997Z,13.57
2023-03-17T09:54:44.259Z,13.1
2023-03-17T09:56:45.718Z,13.76
2023-03-17T09:58:48.484Z,13.62
2023-03-17T10:00:48.289Z,13.62
2023-03-17T10:02:49.504Z,13.81
2023-03-17T10:04:50.742Z,14.01
2023-03-17T10:06:53.212Z,14.24
2023-03-17T10:08:54.489Z,14.63
2023-03-17T10:10:56.196Z,14.14
2023-03-17T10:14:59.704Z,14.2
2023-03-17T10:17:00.964Z,14.8
2023-03-17T10:19:01.997Z,15.34
2023-03-17T10:21:03.261Z,15.21
2023-03-17T10:23:04.573Z,15.58
2023-03-17T10:25:05.489Z,14.91
2023-03-17T10:27:06.691Z,14.97
2023-03-17T10:29:08.466Z,15.74
2023-03-17T10:31:09.999Z,15.88
2023-03-17T10:33:11.394Z,16.16
2023-03-17T10:35:13.066Z,15.93
2023-03-17T10:37:14.009Z,15.8
2023-03-17T10:39:15.272Z,16.4
2023-03-17T10:41:16.866Z,16.26
2023-03-17T10:43:17.869Z,16.36
2023-03-17T10:45:18.682Z,15.78
2023-03-17T10:47:19.977Z,15.76
2023-03-17T10:49:21.462Z,16.19
2023-03-17T10:51:22.255Z,16.92
2023-03-17T10:53:23.578Z,17.02
2023-03-17T10:55:24.807Z,15.9
2023-03-17T10:57:26.018Z,16.6
2023-03-17T10:59:27.559Z,16.42
2023-03-17T11:01:29.410Z,16.77
2023-03-17T11:03:30.908Z,17.11
2023-03-17T11:05:32.093Z,17.38
2023-03-17T11:07:33.072Z,17.6
2023-03-17T11:09:34.490Z,17.63
2023-03-17T11:11:35.688Z,16.86
2023-03-17T11:13:36.704Z,16.35
2023-03-17T11:15:37.793Z,16.71
2023-03-17T11:17:39.000Z,16.75
2023-03-17T11:19:40.120Z,16.83
2023-03-17T11:21:41.170Z,17.06
2023-03-17T11:23:42.402Z,17.62
2023-03-17T11:25:44.541Z,16.81
2023-03-17T11:27:46.025Z,16.6
2023-03-17T11:29:47.517Z,17.08
2023-03-17T11:31:49.325Z,17.37
2023-03-17T11:33:50.324Z,17.12
2023-03-17T11:35:52.075Z,16.77
2023-03-17T11:37:53.324Z,17.42
2023-03-17T11:39:54.301Z,17.32
2023-03-17T11:41:55.828Z,17.02
2023-03-17T11:43:57.257Z,16.86
2023-03-17T11:45:59.072Z,17.09
2023-03-17T11:48:00.979Z,16.86
2023-03-17T11:50:01.423Z,17.53
2023-03-17T11:52:03.141Z,17.44
2023-03-17T11:54:04.002Z,17.32
2023-03-17T11:56:05.063Z,17.75
2023-03-17T11:58:06.432Z,18.01
2023-03-17T12:00:07.438Z,17.34
2023-03-17T12:02:08.624Z,17.4
2023-03-17T12:04:10.080Z,17.48
2023-03-17T12:06:11.724Z,17.7
2023-03-17T12:08:13.029Z,17.32
2023-03-17T12:10:13.870Z,17.37
2023-03-17T12:12:16.245Z,17.56
2023-03-17T12:14:17.034Z,17.36
2023-03-17T12:16:18.591Z,17.63
2023-03-17T12:18:19.613Z,17.97
2023-03-17T12:20:20.644Z,17.6
2023-03-17T12:22:22.485Z,17.51
2023-03-17T12:24:23.282Z,17.5
2023-03-17T12:26:24.485Z,17.35
2023-03-17T12:28:35.333Z,17.77
2023-03-17T12:30:26.254Z,18.09
2023-03-17T12:32:27.432Z,17.96
2023-03-17T12:34:28.917Z,17.8
2023-03-17T12:36:30.607Z,18.25
2023-03-17T12:38:32.217Z,18.26
2023-03-17T12:40:33.316Z,18.3
2023-03-17T12:42:34.327Z,18.61
2023-03-17T12:44:35.455Z,18.46
2023-03-17T12:46:36.648Z,18.64
2023-03-17T12:48:37.561Z,17.97
2023-03-17T12:50:38.786Z,17.81
2023-03-17T12:52:39.837Z,18.01
2023-03-17T12:54:41.240Z,18.29
2023-03-17T12:56:43.030Z,18.44
2023-03-17T12:58:44.430Z,18.39
2023-03-17T13:00:45.297Z,18.06
2023-03-17T13:02:46.443Z,18.01
2023-03-17T13:04:48.065Z,17.98
2023-03-17T13:06:49.117Z,18.17
2023-03-17T13:08:50.903Z,18.34
2023-03-17T13:10:52.025Z,18.46
2023-03-17T13:12:53.590Z,18.4
2023-03-17T13:14:55.033Z,18.29
2023-03-17T13:16:56.442Z,18.79
2023-03-17T13:18:57.851Z,18.95
2023-03-17T13:20:59.805Z,19.05
2023-03-17T13:23:00.837Z,19.21
2023-03-17T13:25:02.472Z,18.83
2023-03-17T13:27:04.123Z,19.27
2023-03-17T13:29:05.183Z,18.82
2023-03-17T13:31:06.684Z,18.69
2023-03-17T13:33:07.676Z,19
2023-03-17T13:35:09.026Z,19.01
2023-03-17T13:37:10.384Z,19
2023-03-17T13:39:19.149Z,18.6
2023-03-17T13:41:12.648Z,18.66
2023-03-17T13:43:13.497Z,18.46
2023-03-17T13:45:14.702Z,18.75
2023-03-17T13:47:15.817Z,18.77
2023-03-17T13:49:17.588Z,18.77
2023-03-17T13:51:18.452Z,18.73
2023-03-17T13:53:19.509Z,18.84
2023-03-17T13:55:20.526Z,18.85
2023-03-17T13:57:21.701Z,19.14
2023-03-17T13:59:22.796Z,19.64
2023-03-17T14:01:23.734Z,19.68
2023-03-17T14:03:25.184Z,19.41
2023-03-17T14:05:26.651Z,19.33
2023-03-17T14:07:28.393Z,18.79
2023-03-17T14:09:29.889Z,18.47
2023-03-17T14:11:31.385Z,18.35
2023-03-17T14:13:32.748Z,18.4
2023-03-17T14:15:33.876Z,18.45
2023-03-17T14:19:36.170Z,18.28
2023-03-17T14:21:37.347Z,18.2
2023-03-17T14:23:38.196Z,18.1
2023-03-17T14:25:39.340Z,18.17
2023-03-17T14:27:40.774Z,18.49
2023-03-17T14:29:42.436Z,18.63
2023-03-17T14:31:43.380Z,18.46
2023-03-17T14:33:44.532Z,18.77
2023-03-17T14:35:45.931Z,19.01
2023-03-17T14:37:47.090Z,18.84
2023-03-17T14:39:48.461Z,18.44
2023-03-17T14:41:49.836Z,18.35
2023-03-17T14:43:51.221Z,18.3
2023-03-17T14:45:52.340Z,18.22
2023-03-17T14:47:53.179Z,18.23
2023-03-17T14:49:54.047Z,17.85
2023-03-17T14:51:55.703Z,17.81
2023-03-17T14:53:56.985Z,17.74
2023-03-17T14:55:58.542Z,17.62
2023-03-17T14:56:42.263Z,17.58
2023-03-17T14:58:43.390Z,17.52
2023-03-17T15:00:44.353Z,17.52
2023-03-17T15:02:45.271Z,17.47
2023-03-17T15:04:46.457Z,17.49
2023-03-17T15:06:47.393Z,17.49
2023-03-17T15:08:48.620Z,17.48
2023-03-17T15:10:50.259Z,17.5
2023-03-17T15:12:52.011Z,17.55
2023-03-17T15:14:53.646Z,17.5
2023-03-17T15:16:55.490Z,17.54
2023-03-17T15:18:57.030Z,17.54
2023-03-17T15:20:58.725Z,17.5
2023-03-17T15:23:00.520Z,17.53
2023-03-17T15:25:02.276Z,17.57
2023-03-17T15:27:11.472Z,17.54
2023-03-17T15:29:05.246Z,17.51
2023-03-17T15:31:06.957Z,17.55
2023-03-17T15:33:08.419Z,17.5
2023-03-17T15:35:10.125Z,17.53
2023-03-17T15:37:11.917Z,17.53
2023-03-17T15:39:13.560Z,17.57
2023-03-17T15:41:14.992Z,17.56
2023-03-17T15:43:16.701Z,17.37
2023-03-17T15:45:18.448Z,17.32
2023-03-17T15:47:19.820Z,17.29
2023-03-17T15:49:21.330Z,17.11
2023-03-17T15:51:22.772Z,16.99
2023-03-17T15:53:24.187Z,16.98
2023-03-17T15:55:25.225Z,16.86
2023-03-17T15:57:26.283Z,16.98
2023-03-17T15:59:27.348Z,17.02
2023-03-17T16:01:28.769Z,17.05
2023-03-17T16:03:30.003Z,17.28
2023-03-17T16:05:31.212Z,17.05
2023-03-17T16:07:32.454Z,16.88
2023-03-17T16:09:33.946Z,16.81
2023-03-17T16:11:35.751Z,16.66
2023-03-17T16:13:37.570Z,16.7
2023-03-17T16:15:39.093Z,16.54
2023-03-17T16:17:40.251Z,16.61
2023-03-17T16:19:41.957Z,16.62
2023-03-17T16:21:43.634Z,16.57
2023-03-17T16:23:44.743Z,16.52
2023-03-17T16:25:45.996Z,16.78
2023-03-17T16:27:47.461Z,16.58
2023-03-17T16:29:49.309Z,16.57
2023-03-17T16:31:50.840Z,16.53
2023-03-17T16:33:51.901Z,16.45
2023-03-17T16:37:54.885Z,16.48
2023-03-17T16:39:55.767Z,16.15
2023-03-17T16:41:57.177Z,16.13
2023-03-17T16:43:58.173Z,15.82
2023-03-17T16:45:59.113Z,15.87
2023-03-17T16:48:00.282Z,15.8
2023-03-17T16:50:01.212Z,15.54
2023-03-17T16:52:02.669Z,15.33
2023-03-17T16:54:04.499Z,14.95
2023-03-17T16:56:05.795Z,15.74
2023-03-17T16:58:06.874Z,15.38
2023-03-17T17:00:08.521Z,15.75
2023-03-17T17:02:10.172Z,15.9
2023-03-17T17:04:11.582Z,15.28
2023-03-17T17:06:13.025Z,15.25
2023-03-17T17:08:14.750Z,14.9
2023-03-17T17:10:16.212Z,14.97
2023-03-17T17:12:17.242Z,14.26
2023-03-17T17:14:18.668Z,15.17
2023-03-17T17:16:20.381Z,14.93
2023-03-17T17:18:21.771Z,14.74
2023-03-17T17:20:23.022Z,14.86
2023-03-17T17:22:24.391Z,14.52
2023-03-17T17:24:25.598Z,14.55
2023-03-17T17:26:26.831Z,14.61
2023-03-17T17:28:28.245Z,15.05
2023-03-17T17:30:29.574Z,14.73
2023-03-17T17:32:30.576Z,14.68
2023-03-17T17:34:31.575Z,14.37
2023-03-17T17:36:32.582Z,14.79
2023-03-17T17:38:33.918Z,15.17
2023-03-17T17:40:35.144Z,14.49
2023-03-17T17:42:36.077Z,14.21
2023-03-17T17:44:37.295Z,14.23
2023-03-17T17:46:38.317Z,14.02
2023-03-17T17:48:39.302Z,14.53
2023-03-17T17:50:40.929Z,14.73
2023-03-17T17:52:41.847Z,14.62
2023-03-17T17:54:43.304Z,14.42
2023-03-17T17:56:44.731Z,14.07
2023-03-17T17:58:46.437Z,13.97
2023-03-17T18:00:47.871Z,14.06
2023-03-17T18:02:49.541Z,14.06
2023-03-17T18:04:50.561Z,13.61
2023-03-17T18:06:51.762Z,13.58
2023-03-17T18:08:52.713Z,13.4
2023-03-17T18:10:54.025Z,13.85
2023-03-17T18:12:55.189Z,14.36
2023-03-17T18:14:57.009Z,14.65
2023-03-17T18:18:59.769Z,14.43
2023-03-17T18:21:00.924Z,13.62
2023-03-17T18:23:02.455Z,13.77
2023-03-17T18:25:04.111Z,13.79
2023-03-17T18:27:05.611Z,13.67
2023-03-17T18:29:06.589Z,13.76
2023-03-17T18:31:08.486Z,13.65
2023-03-17T18:33:10.063Z,13.3
2023-03-17T18:35:11.520Z,12.85
2023-03-17T18:37:12.619Z,12.78
2023-03-17T18:39:13.679Z,12.69
2023-03-17T18:41:15.432Z,12.55
2023-03-17T18:43:16.988Z,12.56
2023-03-17T18:45:18.133Z,12.63
2023-03-17T18:47:19.093Z,12.86
2023-03-17T18:49:20.464Z,12.81
2023-03-17T18:51:22.363Z,12.13
2023-03-17T18:53:23.613Z,11.88
2023-03-17T18:55:25.341Z,12
2023-03-17T18:57:26.505Z,12.05
2023-03-17T18:59:28.163Z,12.05
2023-03-17T19:01:29.320Z,12.12
2023-03-17T19:03:31.220Z,12.54
2023-03-17T19:05:32.164Z,12.67
2023-03-17T19:07:33.335Z,13.11
2023-03-17T19:09:34.342Z,12.54
2023-03-17T19:11:35.563Z,12.1
2023-03-17T19:13:37.336Z,11.5
2023-03-17T19:15:38.929Z,11.22
2023-03-17T19:17:40.352Z,11.21
2023-03-17T19:19:41.466Z,11.29
2023-03-17T19:21:43.268Z,11.18
2023-03-17T19:23:44.797Z,11.04
2023-03-17T19:25:46.240Z,11.04
2023-03-17T19:27:48.046Z,10.97
2023-03-17T19:29:49.247Z,10.94
2023-03-17T19:31:50.759Z,11.08
2023-03-17T19:33:52.162Z,11.02
2023-03-17T19:35:53.518Z,11.03
2023-03-17T19:37:54.842Z,11.06
2023-03-17T19:39:56.690Z,11.05
2023-03-17T19:41:57.930Z,11.03
2023-03-17T19:43:59.118Z,11.01
2023-03-17T19:46:01.051Z,11.01
2023-03-17T19:48:02.330Z,10.86
2023-03-17T19:50:03.828Z,10.8
2023-03-17T19:52:05.606Z,10.85
2023-03-17T19:54:07.199Z,10.99
2023-03-17T19:56:08.775Z,11.1
2023-03-17T19:58:10.252Z,11.19
2023-03-17T20:00:11.484Z,11.3
2023-03-17T20:02:12.419Z,10.8
2023-03-17T20:04:14.189Z,10.85
2023-03-17T20:06:15.211Z,11.33
2023-03-17T20:08:16.381Z,11.9
2023-03-17T20:10:18.177Z,12.28
2023-03-17T20:12:28.345Z,11.53
2023-03-17T20:14:20.966Z,11.35
2023-03-17T20:16:22.274Z,11.08
2023-03-17T20:18:24.088Z,11.11
2023-03-17T20:20:25.799Z,10.53
2023-03-17T20:22:27.014Z,10.44
2023-03-17T20:24:28.910Z,10.32
2023-03-17T20:26:29.826Z,9.83
2023-03-17T20:28:31.102Z,9.75
2023-03-17T20:32:34.118Z,9.76
2023-03-17T20:34:35.311Z,9.88
2023-03-17T20:36:36.419Z,9.85
2023-03-17T20:38:38.160Z,9.88
2023-03-17T20:40:39.654Z,9.82
2023-03-17T20:42:41.070Z,9.9
2023-03-17T20:44:42.416Z,9.87
2023-03-17T20:46:44.228Z,9.84
2023-03-17T20:48:45.782Z,9.92
2023-03-17T20:50:46.772Z,10
2023-03-17T20:52:48.712Z,9.89
2023-03-17T20:54:50.092Z,9.82
2023-03-17T20:56:51.886Z,9.78
2023-03-17T20:58:53.147Z,9.77
2023-03-17T21:00:54.248Z,9.92
2023-03-17T21:02:55.715Z,9.93
2023-03-17T21:04:57.596Z,10.02
2023-03-17T21:06:59.193Z,10.07
2023-03-17T21:09:01.109Z,10.08
2023-03-17T21:11:02.305Z,10.22
2023-03-17T21:13:03.287Z,9.85
2023-03-17T21:15:04.655Z,9.57
2023-03-17T21:17:05.614Z,9.54
2023-03-17T21:19:09.233Z,9.47
2023-03-17T21:21:08.968Z,9.47
2023-03-17T21:23:10.888Z,9.54
2023-03-17T21:25:12.020Z,9.71
2023-03-17T21:27:13.360Z,9.77
2023-03-17T21:29:15.247Z,9.84
2023-03-17T21:31:17.041Z,9.82
2023-03-17T21:33:18.449Z,10
2023-03-17T21:35:19.924Z,10.18
2023-03-17T21:37:21.760Z,10.2
2023-03-17T21:39:23.350Z,10.5
2023-03-17T21:41:25.156Z,10.75
2023-03-17T21:42:09.005Z,10.77
2023-03-17T21:44:10.087Z,10.79
2023-03-17T21:46:11.665Z,10.9
2023-03-17T21:48:13.311Z,10.91
2023-03-17T21:50:17.539Z,10.85
2023-03-17T21:52:16.152Z,10.71
2023-03-17T21:54:17.305Z,10.51
2023-03-17T21:56:18.891Z,10.33
2023-03-17T21:58:20.246Z,10.13
2023-03-17T22:00:21.843Z,9.99
2023-03-17T22:02:23.721Z,9.84
2023-03-17T22:04:24.855Z,9.73
2023-03-17T22:06:26.180Z,9.64
2023-03-17T22:08:27.886Z,9.55
2023-03-17T22:10:29.434Z,9.39
2023-03-17T22:12:31.107Z,9.16
2023-03-17T22:14:32.706Z,8.85
2023-03-17T22:16:33.953Z,8.77
2023-03-17T22:18:35.602Z,8.9
2023-03-17T22:20:37.241Z,9.01
2023-03-17T22:22:38.552Z,8.99
2023-03-17T22:24:39.748Z,8.99
2023-03-17T22:26:40.972Z,8.95
2023-03-17T22:28:42.901Z,8.94
2023-03-17T22:30:44.569Z,8.92
2023-03-17T22:32:46.055Z,8.88
2023-03-17T22:34:47.111Z,8.86
2023-03-17T22:36:48.742Z,8.84
2023-03-17T22:38:50.567Z,8.82
2023-03-17T22:40:52.498Z,8.79
2023-03-17T22:42:53.575Z,8.66
2023-03-17T22:44:54.660Z,8.59
2023-03-17T22:46:56.064Z,8.43
2023-03-17T22:48:58.080Z,8.35
2023-03-17T22:50:59.302Z,8.32
2023-03-17T22:53:00.411Z,8.28
2023-03-17T22:55:01.579Z,8.34
2023-03-17T22:57:05.463Z,8.25
2023-03-17T22:59:04.622Z,8.16
2023-03-17T23:01:06.607Z,8.04
2023-03-17T23:03:07.993Z,8.06
2023-03-17T23:05:09.075Z,8.23
2023-03-17T23:07:10.759Z,8.27
2023-03-17T23:09:12.141Z,8.29
2023-03-17T23:11:13.519Z,8.31
2023-03-17T23:13:14.814Z,8.32
2023-03-17T23:15:16.737Z,8.36
2023-03-17T23:17:18.121Z,8.33
2023-03-17T23:19:19.647Z,8.26
2023-03-17T23:21:21.204Z,8.03
2023-03-17T23:23:23.077Z,7.91
2023-03-17T23:25:24.446Z,7.81
2023-03-17T23:27:25.759Z,7.75
2023-03-17T23:29:27.627Z,7.95
2023-03-17T23:33:30.187Z,8.06
2023-03-17T23:35:32.225Z,8.16
2023-03-17T23:37:33.139Z,8.09
2023-03-17T23:39:35.051Z,8.04
2023-03-17T23:41:36.598Z,8.02
2023-03-17T23:43:38.056Z,8.06
2023-03-17T23:45:39.654Z,8.06
2023-03-17T23:47:40.631Z,7.99
2023-03-17T23:49:42.474Z,7.89
2023-03-17T23:51:43.833Z,7.86
2023-03-17T23:53:45.371Z,7.85
2023-03-17T23:55:47.031Z,7.78
2023-03-17T23:57:48.521Z,7.69
2023-03-17T23:59:50.415Z,7.63
